Time;durP1;ratioP1;P1;durP2;ratioP2;P2;SDS_P1;SDS_P2;PMS_P1;PMS_P2;Temp;Humidity;BMP_temperature;BMP_pressure;BME280_temperature;BME280_humidity;BME280_pressure;Samples;Min_cycle;Max_cycle;Signal;HPM_P1;HPM_P2
2022/08/08 00:00:07;;;;;;;3.50;1.80;;;;;;;;;;10243339;29;20450;-87
2022/08/08 00:05:20;;;;;;;2.07;1.70;;;;;;;;;;10243662;29;20890;-88
2022/08/08 00:10:26;;;;;;;2.07;1.87;;;;;;;;;;10241906;28;20491;-88
2022/08/08 00:15:31;;;;;;;2.10;1.87;;;;;;;;;;10243875;29;20754;-88
2022/08/08 00:20:41;;;;;;;2.28;1.80;;;;;;;;;;10239642;29;20412;-87
2022/08/08 00:25:47;;;;;;;1.70;1.60;;;;;;;;;;10243391;28;20412;-88
2022/08/08 00:30:55;;;;;;;2.70;1.70;;;;;;;;;;10242662;29;20515;-87
2022/08/08 00:36:06;;;;;;;3.25;2.03;;;;;;;;;;10242740;29;20933;-88
2022/08/08 00:41:43;;;;;;;1.70;1.60;;;;;;;;;;10250755;28;20444;-88
2022/08/08 00:47:10;;;;;;;1.90;1.70;;;;;;;;;;10200102;29;20503;-87
2022/08/08 00:52:30;;;;;;;1.80;1.70;;;;;;;;;;10229424;28;20428;-88
2022/08/08 00:58:11;;;;;;;5.03;2.20;;;;;;;;;;10238129;28;20984;-88
2022/08/08 01:03:54;;;;;;;2.58;2.38;;;;;;;;;;10239526;29;20412;-87
2022/08/08 01:09:30;;;;;;;3.10;2.38;;;;;;;;;;10240778;28;20981;-87
2022/08/08 01:15:08;;;;;;;2.60;2.40;;;;;;;;;;10238241;29;20503;-88
2022/08/08 01:20:35;;;;;;;2.55;2.25;;;;;;;;;;10211622;28;20415;-87
2022/08/08 01:26:13;;;;;;;2.47;2.20;;;;;;;;;;10237724;28;20507;-87
2022/08/08 01:32:05;;;;;;;3.35;2.40;;;;;;;;;;10239354;29;20468;-87
2022/08/08 01:37:48;;;;;;;4.00;2.80;;;;;;;;;;10177181;29;20881;-88
2022/08/08 01:42:56;;;;;;;3.03;2.10;;;;;;;;;;10239549;28;20438;-87
2022/08/08 01:48:07;;;;;;;2.70;2.00;;;;;;;;;;10240078;29;20412;-87
2022/08/08 01:53:31;;;;;;;2.65;2.15;;;;;;;;;;10236993;28;20432;-87
2022/08/08 01:58:42;;;;;;;2.95;2.30;;;;;;;;;;10238783;28;20495;-87
2022/08/08 02:04:02;;;;;;;3.00;2.13;;;;;;;;;;10240297;29;20416;-87
2022/08/08 02:09:11;;;;;;;2.87;2.30;;;;;;;;;;10236496;28;20404;-87
2022/08/08 02:14:27;;;;;;;2.57;2.23;;;;;;;;;;10239921;29;20519;-87
2022/08/08 02:19:37;;;;;;;3.22;2.30;;;;;;;;;;10239529;29;20491;-87
2022/08/08 02:24:50;;;;;;;2.58;2.30;;;;;;;;;;10239339;28;20515;-88
2022/08/08 02:30:07;;;;;;;2.45;1.90;;;;;;;;;;10239027;29;20428;-87
2022/08/08 02:35:46;;;;;;;2.35;2.00;;;;;;;;;;10242215;28;20498;-88
2022/08/08 02:41:09;;;;;;;2.50;2.05;;;;;;;;;;10244357;28;20424;-88
2022/08/08 02:46:26;;;;;;;3.03;2.10;;;;;;;;;;10244521;29;20515;-87
2022/08/08 02:51:58;;;;;;;2.03;1.83;;;;;;;;;;10254593;28;20445;-87
2022/08/08 02:57:44;;;;;;;3.85;2.30;;;;;;;;;;10243987;28;20439;-88
2022/08/08 03:03:22;;;;;;;2.10;1.90;;;;;;;;;;10245967;29;20408;-88
2022/08/08 03:09:09;;;;;;;2.40;2.20;;;;;;;;;;10244850;29;20487;-88
2022/08/08 03:14:36;;;;;;;3.10;2.13;;;;;;;;;;10194716;29;20420;-87
2022/08/08 03:20:04;;;;;;;3.17;2.00;;;;;;;;;;10242200;29;20495;-87
2022/08/08 03:25:09;;;;;;;2.90;2.10;;;;;;;;;;10241939;28;20420;-87
2022/08/08 03:30:13;;;;;;;2.13;1.90;;;;;;;;;;10244472;29;20495;-87
2022/08/08 03:35:15;;;;;;;2.13;2.03;;;;;;;;;;10244653;29;20499;-88
2022/08/08 03:40:20;;;;;;;2.40;2.20;;;;;;;;;;10244920;28;20511;-88
2022/08/08 03:45:24;;;;;;;2.30;2.00;;;;;;;;;;10244001;28;20502;-87
2022/08/08 03:50:26;;;;;;;3.13;2.63;;;;;;;;;;10243737;29;20522;-87
2022/08/08 03:55:29;;;;;;;5.63;2.75;;;;;;;;;;10243537;28;20444;-88
2022/08/08 04:00:31;;;;;;;3.33;2.70;;;;;;;;;;10240561;29;20503;-88
2022/08/08 04:05:35;;;;;;;4.83;2.70;;;;;;;;;;10243868;29;20443;-87
2022/08/08 04:10:38;;;;;;;3.10;2.60;;;;;;;;;;10242894;28;20427;-87
2022/08/08 04:15:40;;;;;;;3.60;2.53;;;;;;;;;;10242960;29;20494;-87
2022/08/08 04:20:42;;;;;;;3.70;2.60;;;;;;;;;;10243073;29;20499;-88
2022/08/08 04:25:46;;;;;;;3.13;2.83;;;;;;;;;;10242851;28;20420;-87
2022/08/08 04:30:48;;;;;;;4.00;2.60;;;;;;;;;;10242367;29;20523;-87
2022/08/08 04:35:49;;;;;;;4.13;3.17;;;;;;;;;;10243117;28;20428;-88
2022/08/08 04:40:53;;;;;;;4.88;3.33;;;;;;;;;;10242467;28;20404;-87
2022/08/08 04:45:55;;;;;;;5.60;2.88;;;;;;;;;;10248358;29;20412;-87
2022/08/08 04:50:56;;;;;;;2.67;2.35;;;;;;;;;;10247659;28;20470;-87
2022/08/08 04:56:00;;;;;;;3.40;2.33;;;;;;;;;;10236958;28;20973;-87
2022/08/08 05:01:02;;;;;;;4.00;2.10;;;;;;;;;;10241490;29;20495;-87
2022/08/08 05:06:05;;;;;;;2.35;2.00;;;;;;;;;;10241582;29;20814;-87
2022/08/08 05:11:12;;;;;;;2.50;1.92;;;;;;;;;;10241334;28;20522;-87
2022/08/08 05:16:14;;;;;;;3.72;2.15;;;;;;;;;;10240743;29;20464;-87
2022/08/08 05:21:16;;;;;;;3.08;1.90;;;;;;;;;;10242752;28;20536;-88
2022/08/08 05:26:19;;;;;;;3.38;1.90;;;;;;;;;;10240805;28;20783;-87
2022/08/08 05:31:21;;;;;;;3.27;1.70;;;;;;;;;;10240530;29;20468;-87
2022/08/08 05:36:25;;;;;;;1.90;1.63;;;;;;;;;;10240113;29;20462;-87
2022/08/08 05:41:29;;;;;;;2.65;1.88;;;;;;;;;;10240494;28;20487;-88
2022/08/08 05:46:31;;;;;;;2.05;1.60;;;;;;;;;;10236107;29;20419;-87
2022/08/08 05:51:34;;;;;;;1.70;1.50;;;;;;;;;;10239088;28;20458;-88
2022/08/08 05:56:39;;;;;;;3.90;2.13;;;;;;;;;;10239603;28;20431;-88
2022/08/08 06:01:42;;;;;;;4.53;2.00;;;;;;;;;;10240200;29;20411;-87
2022/08/08 06:06:45;;;;;;;2.60;2.10;;;;;;;;;;10242669;28;20443;-87
2022/08/08 06:11:49;;;;;;;4.30;2.00;;;;;;;;;;10247735;28;20522;-88
2022/08/08 06:16:51;;;;;;;2.40;1.90;;;;;;;;;;10247594;29;20903;-87
2022/08/08 06:21:54;;;;;;;3.20;1.90;;;;;;;;;;10247098;29;20422;-87
2022/08/08 06:27:04;;;;;;;2.42;1.90;;;;;;;;;;10247758;28;20503;-88
2022/08/08 06:32:10;;;;;;;1.88;1.70;;;;;;;;;;10248512;29;20428;-87
2022/08/08 06:37:13;;;;;;;1.70;1.60;;;;;;;;;;10254759;29;20836;-87
2022/08/08 06:42:18;;;;;;;2.53;1.70;;;;;;;;;;10246031;28;21080;-88
2022/08/08 06:47:20;;;;;;;2.45;1.70;;;;;;;;;;10246587;29;20416;-88
2022/08/08 06:52:22;;;;;;;1.60;1.50;;;;;;;;;;10211547;29;20433;-88
2022/08/08 06:57:26;;;;;;;1.85;1.70;;;;;;;;;;10206218;29;20850;-87
2022/08/08 07:02:31;;;;;;;1.70;1.60;;;;;;;;;;10206249;29;20410;-88
2022/08/08 07:07:54;;;;;;;1.83;1.50;;;;;;;;;;10202168;29;20414;-88
2022/08/08 07:13:03;;;;;;;1.83;1.60;;;;;;;;;;10205734;29;20426;-88
2022/08/08 07:18:07;;;;;;;2.28;1.58;;;;;;;;;;10205157;29;20418;-87
2022/08/08 07:23:15;;;;;;;2.63;1.80;;;;;;;;;;10205207;29;20418;-88
2022/08/08 07:28:21;;;;;;;2.83;1.80;;;;;;;;;;10205453;29;20422;-88
2022/08/08 07:33:23;;;;;;;1.92;1.80;;;;;;;;;;10204825;29;20438;-88
2022/08/08 07:38:27;;;;;;;2.15;1.80;;;;;;;;;;10204464;29;20405;-88
2022/08/08 07:43:33;;;;;;;2.88;2.22;;;;;;;;;;10204692;29;20922;-88
2022/08/08 07:48:35;;;;;;;2.80;2.60;;;;;;;;;;10208997;29;20419;-88
2022/08/08 07:53:44;;;;;;;2.90;2.60;;;;;;;;;;10268348;29;20427;-87
2022/08/08 07:58:50;;;;;;;3.60;2.90;;;;;;;;;;10261460;28;20439;-88
2022/08/08 08:03:55;;;;;;;3.20;2.90;;;;;;;;;;10245295;29;20408;-87
2022/08/08 08:09:05;;;;;;;3.47;3.17;;;;;;;;;;10244775;28;20913;-87
2022/08/08 08:14:10;;;;;;;3.77;3.40;;;;;;;;;;10243880;29;20431;-88
2022/08/08 08:19:13;;;;;;;3.15;2.90;;;;;;;;;;10242907;29;20404;-88
2022/08/08 08:24:16;;;;;;;4.03;3.25;;;;;;;;;;10243227;28;20416;-88
2022/08/08 08:29:19;;;;;;;3.65;3.17;;;;;;;;;;10242216;28;20520;-89
2022/08/08 08:34:21;;;;;;;5.00;3.55;;;;;;;;;;10242740;29;20425;-88
2022/08/08 08:39:23;;;;;;;4.47;3.80;;;;;;;;;;10242856;28;20438;-88
2022/08/08 08:44:27;;;;;;;4.00;3.33;;;;;;;;;;10242619;29;20495;-88
2022/08/08 08:49:29;;;;;;;4.18;3.58;;;;;;;;;;10242328;28;20434;-88
2022/08/08 08:54:34;;;;;;;5.35;3.45;;;;;;;;;;10230196;28;20861;-88
2022/08/08 08:59:41;;;;;;;4.20;3.50;;;;;;;;;;10242341;29;20769;-88
2022/08/08 09:04:45;;;;;;;4.25;3.83;;;;;;;;;;10241780;29;20422;-88
2022/08/08 09:09:53;;;;;;;4.20;3.80;;;;;;;;;;10241334;29;20850;-88
2022/08/08 09:14:58;;;;;;;4.43;4.10;;;;;;;;;;10241715;29;20901;-88
2022/08/08 09:20:00;;;;;;;4.22;3.83;;;;;;;;;;10242201;29;20483;-89
2022/08/08 09:25:04;;;;;;;4.90;3.97;;;;;;;;;;10238048;28;20442;-89
2022/08/08 09:30:13;;;;;;;5.80;4.07;;;;;;;;;;10240935;28;20921;-89
2022/08/08 09:35:19;;;;;;;5.40;4.25;;;;;;;;;;10241100;29;20788;-88
2022/08/08 09:40:22;;;;;;;4.43;4.03;;;;;;;;;;10240922;28;20425;-88
2022/08/08 09:45:32;;;;;;;4.20;3.80;;;;;;;;;;10240915;29;20483;-88
2022/08/08 09:50:34;;;;;;;4.45;4.05;;;;;;;;;;10237326;29;20499;-88
2022/08/08 09:55:37;;;;;;;4.72;4.25;;;;;;;;;;10239653;28;20987;-88
2022/08/08 10:00:41;;;;;;;4.88;4.32;;;;;;;;;;10240129;29;20769;-89
2022/08/08 10:05:44;;;;;;;4.77;4.27;;;;;;;;;;10242526;29;20412;-88
2022/08/08 10:10:46;;;;;;;4.68;4.22;;;;;;;;;;10244831;28;20475;-89
2022/08/08 10:15:51;;;;;;;4.70;4.22;;;;;;;;;;10245979;29;20428;-89
2022/08/08 10:20:58;;;;;;;4.93;4.43;;;;;;;;;;10244966;29;20881;-88
2022/08/08 10:26:02;;;;;;;4.32;3.97;;;;;;;;;;10235640;28;20447;-89
2022/08/08 10:36:25;;;;;;;4.70;4.07;;;;;;;;;;10238795;29;20769;-88
2022/08/08 10:41:30;;;;;;;5.33;4.50;;;;;;;;;;10239558;28;20944;-89
2022/08/08 10:46:34;;;;;;;4.40;4.00;;;;;;;;;;10240057;29;20411;-89
2022/08/08 10:51:37;;;;;;;4.88;4.45;;;;;;;;;;10239316;28;20416;-88
2022/08/08 10:56:38;;;;;;;4.77;4.37;;;;;;;;;;10244955;28;20415;-89
2022/08/08 11:01:46;;;;;;;5.03;4.50;;;;;;;;;;10247204;29;20443;-89
2022/08/08 11:06:48;;;;;;;4.47;4.07;;;;;;;;;;10245969;29;20412;-88
2022/08/08 11:11:52;;;;;;;4.65;4.28;;;;;;;;;;10245729;28;20428;-89
2022/08/08 11:16:55;;;;;;;4.95;4.47;;;;;;;;;;10245854;29;20504;-88
2022/08/08 11:21:57;;;;;;;4.33;4.00;;;;;;;;;;10245888;29;20412;-89
2022/08/08 11:27:02;;;;;;;4.80;4.40;;;;;;;;;;10245661;28;20422;-89
2022/08/08 11:32:07;;;;;;;4.72;4.20;;;;;;;;;;10241814;29;20825;-89
2022/08/08 11:37:10;;;;;;;4.72;4.32;;;;;;;;;;10244664;29;20568;-89
2022/08/08 11:42:13;;;;;;;4.70;4.30;;;;;;;;;;10245816;28;20423;-89
2022/08/08 11:47:17;;;;;;;5.33;4.40;;;;;;;;;;10245486;29;20532;-89
2022/08/08 11:52:19;;;;;;;5.07;4.57;;;;;;;;;;10243926;29;20427;-89
2022/08/08 11:57:23;;;;;;;4.73;4.30;;;;;;;;;;10244430;28;20424;-89
2022/08/08 12:02:28;;;;;;;6.10;4.60;;;;;;;;;;10244107;29;20408;-88
2022/08/08 12:07:30;;;;;;;5.00;4.50;;;;;;;;;;10243741;28;20512;-88
2022/08/08 12:12:41;;;;;;;4.38;4.03;;;;;;;;;;10239877;28;20442;-89
2022/08/08 12:17:44;;;;;;;6.07;4.60;;;;;;;;;;10243757;29;20408;-89
2022/08/08 12:22:49;;;;;;;4.83;4.33;;;;;;;;;;10243329;28;20420;-89
2022/08/08 12:27:51;;;;;;;4.80;4.40;;;;;;;;;;10242699;28;20436;-90
2022/08/08 12:32:58;;;;;;;4.90;4.40;;;;;;;;;;10242793;29;21632;-89
2022/08/08 12:38:06;;;;;;;4.90;4.40;;;;;;;;;;10239352;29;20432;-89
2022/08/08 12:43:10;;;;;;;5.18;4.53;;;;;;;;;;10239426;28;20809;-89
2022/08/08 12:48:19;;;;;;;5.77;4.53;;;;;;;;;;10242682;29;20893;-89
2022/08/08 12:53:24;;;;;;;4.60;4.20;;;;;;;;;;10242157;28;20781;-90
2022/08/08 12:58:28;;;;;;;4.63;4.22;;;;;;;;;;10242195;28;20417;-89
2022/08/08 13:03:34;;;;;;;6.00;4.15;;;;;;;;;;10242152;29;20495;-89
2022/08/08 13:08:44;;;;;;;4.57;4.20;;;;;;;;;;10241598;29;20493;-89
2022/08/08 13:14:09;;;;;;;4.43;4.10;;;;;;;;;;10241667;28;20904;-89
2022/08/08 13:19:13;;;;;;;4.68;4.28;;;;;;;;;;10239692;28;20405;-89
2022/08/08 13:24:14;;;;;;;4.72;4.30;;;;;;;;;;10245738;28;20491;-88
2022/08/08 13:29:16;;;;;;;4.68;4.28;;;;;;;;;;10246162;29;20568;-88
2022/08/08 13:34:20;;;;;;;4.63;4.20;;;;;;;;;;10245336;29;20424;-87
2022/08/08 13:39:23;;;;;;;4.68;4.28;;;;;;;;;;10244376;28;21059;-88
2022/08/08 13:44:27;;;;;;;4.57;4.15;;;;;;;;;;10241160;29;20450;-89
2022/08/08 13:49:31;;;;;;;4.97;4.40;;;;;;;;;;10241010;29;20426;-89
2022/08/08 13:54:35;;;;;;;4.90;4.50;;;;;;;;;;10236957;28;21037;-88
2022/08/08 13:59:39;;;;;;;5.07;4.57;;;;;;;;;;10240568;29;20400;-89
2022/08/08 14:04:54;;;;;;;4.90;4.40;;;;;;;;;;10240931;29;20415;-89
2022/08/08 14:09:59;;;;;;;4.80;4.40;;;;;;;;;;10239857;28;20491;-89
2022/08/08 14:15:02;;;;;;;6.93;4.55;;;;;;;;;;10240810;29;20434;-89
2022/08/08 14:20:08;;;;;;;5.50;4.32;;;;;;;;;;10240252;29;20447;-89
2022/08/08 14:25:10;;;;;;;5.40;4.30;;;;;;;;;;10240186;28;20419;-89
2022/08/08 14:30:15;;;;;;;4.85;4.45;;;;;;;;;;10244349;28;20482;-89
2022/08/08 14:35:21;;;;;;;4.70;4.30;;;;;;;;;;10248044;29;20784;-88
2022/08/08 14:40:25;;;;;;;4.65;4.25;;;;;;;;;;10282105;28;20435;-88
2022/08/08 14:45:29;;;;;;;4.60;4.20;;;;;;;;;;10272138;29;20888;-89
2022/08/08 14:50:34;;;;;;;5.20;4.47;;;;;;;;;;10247417;29;20434;-89
2022/08/08 14:55:37;;;;;;;4.80;4.45;;;;;;;;;;10246501;28;20514;-89
2022/08/08 15:00:39;;;;;;;5.25;4.47;;;;;;;;;;10256150;23;20538;-87
2022/08/08 15:05:43;;;;;;;4.77;4.20;;;;;;;;;;10246933;29;20407;-87
2022/08/08 15:10:45;;;;;;;4.77;4.37;;;;;;;;;;10247596;28;20412;-88
2022/08/08 15:15:47;;;;;;;4.88;4.47;;;;;;;;;;10249722;29;21189;-87
2022/08/08 15:20:50;;;;;;;4.85;4.35;;;;;;;;;;10248227;29;20483;-87
2022/08/08 15:25:52;;;;;;;4.63;4.23;;;;;;;;;;10245508;28;20520;-87
2022/08/08 15:30:53;;;;;;;5.07;4.67;;;;;;;;;;10245273;29;20410;-87
2022/08/08 15:35:57;;;;;;;5.73;4.47;;;;;;;;;;10245235;29;20432;-87
2022/08/08 15:40:59;;;;;;;4.70;4.30;;;;;;;;;;10244679;28;20962;-86
2022/08/08 15:46:01;;;;;;;4.80;4.40;;;;;;;;;;10244804;29;20903;-87
2022/08/08 15:51:05;;;;;;;4.90;4.40;;;;;;;;;;10241103;29;20809;-87
2022/08/08 15:56:07;;;;;;;5.57;4.65;;;;;;;;;;10243953;28;20454;-87
2022/08/08 16:01:09;;;;;;;4.90;4.50;;;;;;;;;;10244536;29;20426;-87
2022/08/08 16:06:13;;;;;;;5.35;4.88;;;;;;;;;;10244885;29;20404;-87
2022/08/08 16:11:15;;;;;;;4.93;4.40;;;;;;;;;;10244520;28;20422;-87
2022/08/08 16:16:16;;;;;;;4.65;4.35;;;;;;;;;;10244078;29;20438;-86
2022/08/08 16:21:20;;;;;;;5.20;4.72;;;;;;;;;;10243728;28;20437;-87
2022/08/08 16:26:21;;;;;;;5.50;5.00;;;;;;;;;;10244010;28;20503;-87
2022/08/08 16:31:23;;;;;;;6.95;4.82;;;;;;;;;;10243253;29;20483;-87
2022/08/08 16:36:27;;;;;;;5.57;5.07;;;;;;;;;;10243308;29;20527;-86
2022/08/08 16:41:29;;;;;;;5.40;4.90;;;;;;;;;;10242926;28;20424;-87
2022/08/08 16:46:31;;;;;;;5.10;4.60;;;;;;;;;;10231235;29;20408;-87
2022/08/08 16:51:36;;;;;;;5.27;4.70;;;;;;;;;;10241749;28;20426;-86
2022/08/08 16:56:39;;;;;;;7.22;4.72;;;;;;;;;;10241981;28;20849;-86
2022/08/08 17:01:41;;;;;;;5.47;4.97;;;;;;;;;;10243064;29;20584;-87
2022/08/08 17:06:44;;;;;;;6.77;4.70;;;;;;;;;;10242347;29;20791;-86
2022/08/08 17:11:46;;;;;;;5.57;5.07;;;;;;;;;;10241525;28;20458;-87
2022/08/08 17:16:48;;;;;;;5.75;5.10;;;;;;;;;;10241660;29;20975;-88
2022/08/08 17:21:51;;;;;;;7.32;5.13;;;;;;;;;;10241319;28;20423;-86
2022/08/08 17:26:53;;;;;;;5.30;4.70;;;;;;;;;;10240951;28;20416;-86
2022/08/08 17:31:55;;;;;;;4.75;4.28;;;;;;;;;;10240925;29;20951;-86
2022/08/08 17:36:59;;;;;;;7.05;4.30;;;;;;;;;;10240727;29;20912;-86
2022/08/08 17:42:00;;;;;;;5.10;4.60;;;;;;;;;;10240171;28;20830;-86
2022/08/08 17:47:03;;;;;;;4.60;4.30;;;;;;;;;;10237318;29;20405;-86
2022/08/08 17:52:07;;;;;;;5.07;4.55;;;;;;;;;;10240953;29;20458;-87
2022/08/08 17:57:10;;;;;;;4.85;3.90;;;;;;;;;;10240118;28;20893;-87
2022/08/08 18:02:12;;;;;;;4.95;4.45;;;;;;;;;;10241219;28;20418;-87
2022/08/08 18:07:16;;;;;;;4.72;4.20;;;;;;;;;;10248507;29;20412;-87
2022/08/08 18:12:17;;;;;;;4.30;3.90;;;;;;;;;;10248321;28;20920;-87
2022/08/08 18:17:22;;;;;;;4.57;4.03;;;;;;;;;;10248358;29;20515;-87
2022/08/08 18:22:25;;;;;;;4.22;3.83;;;;;;;;;;10247951;29;20420;-87
2022/08/08 18:27:27;;;;;;;3.78;3.45;;;;;;;;;;10247391;28;20979;-87
2022/08/08 18:32:29;;;;;;;3.70;3.30;;;;;;;;;;10248012;29;20487;-87
2022/08/08 18:37:32;;;;;;;4.15;3.55;;;;;;;;;;10247227;29;20712;-87
2022/08/08 18:42:35;;;;;;;3.90;3.50;;;;;;;;;;10247313;28;20844;-87
2022/08/08 18:47:37;;;;;;;3.75;3.40;;;;;;;;;;10247298;29;20513;-87
2022/08/08 18:52:40;;;;;;;4.13;3.83;;;;;;;;;;10247646;29;20412;-87
2022/08/08 18:57:42;;;;;;;6.93;3.80;;;;;;;;;;10249780;28;20431;-87
2022/08/08 19:02:45;;;;;;;3.87;3.57;;;;;;;;;;10247539;29;20507;-87
2022/08/08 19:07:48;;;;;;;4.30;3.90;;;;;;;;;;10246409;29;20564;-87
2022/08/08 19:12:50;;;;;;;4.33;3.93;;;;;;;;;;10246015;28;20512;-87
2022/08/08 19:17:52;;;;;;;4.47;3.75;;;;;;;;;;10245257;28;20893;-88
2022/08/08 19:22:55;;;;;;;4.55;4.22;;;;;;;;;;10246156;29;20964;-87
2022/08/08 19:27:57;;;;;;;4.55;4.00;;;;;;;;;;10245932;28;20908;-89
2022/08/08 19:32:59;;;;;;;4.45;4.07;;;;;;;;;;10246086;28;20446;-87
2022/08/08 19:38:03;;;;;;;4.72;4.32;;;;;;;;;;10245243;29;20447;-87
2022/08/08 19:43:05;;;;;;;5.43;4.70;;;;;;;;;;10243807;28;20571;-87
2022/08/08 19:48:06;;;;;;;6.43;4.43;;;;;;;;;;10245090;29;20487;-88
2022/08/08 19:53:10;;;;;;;5.32;4.82;;;;;;;;;;10244927;29;20489;-87
2022/08/08 19:58:12;;;;;;;5.63;5.00;;;;;;;;;;10244442;28;21060;-87
2022/08/08 20:03:13;;;;;;;6.03;5.30;;;;;;;;;;10244532;29;20400;-87
2022/08/08 20:08:17;;;;;;;5.85;5.20;;;;;;;;;;10243664;28;20904;-87
2022/08/08 20:13:19;;;;;;;8.18;5.10;;;;;;;;;;10244230;28;20412;-87
2022/08/08 20:18:21;;;;;;;5.90;4.90;;;;;;;;;;10243885;29;20418;-87
2022/08/08 20:23:24;;;;;;;6.35;5.05;;;;;;;;;;10243768;29;20491;-87
2022/08/08 20:28:26;;;;;;;5.68;4.90;;;;;;;;;;10243922;28;20408;-87
2022/08/08 20:33:28;;;;;;;7.43;5.17;;;;;;;;;;10243081;29;20427;-87
2022/08/08 20:38:31;;;;;;;6.43;5.30;;;;;;;;;;10243180;28;20904;-87
2022/08/08 20:43:35;;;;;;;6.20;5.13;;;;;;;;;;10242736;28;20447;-87
2022/08/08 20:48:37;;;;;;;6.93;5.32;;;;;;;;;;10242629;29;20413;-88
2022/08/08 20:53:40;;;;;;;8.17;5.30;;;;;;;;;;10242788;29;20515;-87
2022/08/08 20:58:41;;;;;;;6.77;5.20;;;;;;;;;;10242489;28;20449;-87
2022/08/08 21:03:43;;;;;;;5.93;5.30;;;;;;;;;;10242478;29;20438;-87
2022/08/08 21:08:46;;;;;;;5.97;5.30;;;;;;;;;;10242896;29;20729;-87
2022/08/08 21:13:48;;;;;;;5.55;4.95;;;;;;;;;;10241702;28;20438;-87
2022/08/08 21:18:50;;;;;;;5.90;5.30;;;;;;;;;;10241498;29;20415;-89
2022/08/08 21:23:53;;;;;;;5.93;5.30;;;;;;;;;;10241291;28;20420;-87
2022/08/08 21:28:55;;;;;;;6.18;5.32;;;;;;;;;;10241485;28;20423;-87
2022/08/08 21:33:57;;;;;;;6.07;5.10;;;;;;;;;;10241306;29;20420;-87
2022/08/08 21:39:00;;;;;;;6.47;5.17;;;;;;;;;;10239959;28;20416;-87
2022/08/08 21:44:02;;;;;;;6.20;5.20;;;;;;;;;;10240277;29;20534;-87
2022/08/08 21:49:04;;;;;;;7.72;5.25;;;;;;;;;;10240361;29;20416;-87
2022/08/08 21:54:09;;;;;;;5.70;5.13;;;;;;;;;;10240755;28;20515;-87
2022/08/08 21:59:11;;;;;;;7.93;5.43;;;;;;;;;;10240417;29;20900;-87
2022/08/08 22:04:13;;;;;;;6.15;5.00;;;;;;;;;;10240283;29;20943;-87
2022/08/08 22:09:16;;;;;;;6.07;5.47;;;;;;;;;;10240334;28;20502;-87
2022/08/08 22:14:18;;;;;;;5.55;5.03;;;;;;;;;;10240176;29;20523;-87
2022/08/08 22:19:20;;;;;;;5.95;5.03;;;;;;;;;;10240232;29;20408;-87
2022/08/08 22:24:23;;;;;;;5.72;4.82;;;;;;;;;;10240317;28;20495;-87
2022/08/08 22:29:25;;;;;;;7.47;4.90;;;;;;;;;;10242069;29;20408;-87
2022/08/08 22:34:26;;;;;;;5.45;4.93;;;;;;;;;;10243977;29;20528;-87
2022/08/08 22:39:30;;;;;;;6.13;4.70;;;;;;;;;;10239669;28;20415;-87
2022/08/08 22:44:32;;;;;;;6.10;4.45;;;;;;;;;;10235558;29;20427;-87
2022/08/08 22:49:34;;;;;;;7.05;4.50;;;;;;;;;;10241143;28;20418;-87
2022/08/08 22:54:38;;;;;;;5.80;4.60;;;;;;;;;;10246602;28;20952;-87
2022/08/08 22:59:40;;;;;;;5.83;4.30;;;;;;;;;;10246486;29;20499;-87
2022/08/08 23:04:54;;;;;;;5.18;4.25;;;;;;;;;;10246505;29;20412;-87
2022/08/08 23:09:58;;;;;;;5.77;4.03;;;;;;;;;;10246360;28;20471;-87
2022/08/08 23:15:00;;;;;;;4.68;4.25;;;;;;;;;;10245891;29;20537;-86
2022/08/08 23:20:02;;;;;;;5.65;4.65;;;;;;;;;;10246037;29;20758;-87
2022/08/08 23:25:06;;;;;;;4.75;4.13;;;;;;;;;;10245110;28;20499;-87
2022/08/08 23:30:09;;;;;;;5.25;4.20;;;;;;;;;;10243173;29;20414;-87
2022/08/08 23:35:11;;;;;;;4.57;4.18;;;;;;;;;;10245757;29;20515;-87
2022/08/08 23:40:14;;;;;;;6.43;4.20;;;;;;;;;;10244857;28;20415;-87
2022/08/08 23:45:16;;;;;;;4.40;4.00;;;;;;;;;;10245537;29;20837;-87
2022/08/08 23:50:18;;;;;;;4.30;3.90;;;;;;;;;;10244843;29;20447;-87
2022/08/08 23:55:22;;;;;;;4.80;3.92;;;;;;;;;;10244174;28;20519;-87
